Time;durP1;ratioP1;P1;durP2;ratioP2;P2;SDS_P1;SDS_P2;PMS_P1;PMS_P2;Temp;Humidity;BMP_temperature;BMP_pressure;BME280_temperature;BME280_humidity;BME280_pressure;Samples;Min_cycle;Max_cycle;Signal;HPM_P1;HPM_P2
2022/12/04 00:00:16;;;;;;;178.07;38.93;;;;;;;-0.45;100.00;100914.28;4199910;28;20224;-67
2022/12/04 00:02:43;;;;;;;175.00;39.87;;;;;;;-0.51;100.00;100916.31;4198027;28;20345;-66
2022/12/04 00:05:10;;;;;;;179.03;39.53;;;;;;;-0.47;100.00;100907.41;4197395;28;20309;-69
2022/12/04 00:07:37;;;;;;;178.43;39.60;;;;;;;-0.51;100.00;100906.69;4196106;28;25265;-67
2022/12/04 00:10:03;;;;;;;169.13;39.67;;;;;;;-0.51;100.00;100904.09;4187781;28;20684;-66
2022/12/04 00:12:30;;;;;;;177.77;38.70;;;;;;;-0.53;100.00;100903.28;4197620;28;20232;-67
2022/12/04 00:14:57;;;;;;;183.80;40.10;;;;;;;-0.54;100.00;100903.34;4195696;28;20235;-67
2022/12/04 00:17:46;;;;;;;167.33;38.67;;;;;;;-0.57;100.00;100922.63;4203169;28;23405;-68
2022/12/04 00:20:13;;;;;;;177.93;40.67;;;;;;;-0.54;100.00;100926.88;4193664;28;21983;-66
2022/12/04 00:22:40;;;;;;;185.57;40.63;;;;;;;-0.56;100.00;100929.56;4185532;28;20304;-68
2022/12/04 00:25:07;;;;;;;187.93;40.60;;;;;;;-0.54;100.00;100922.53;4194114;28;21115;-66
2022/12/04 00:27:34;;;;;;;189.00;39.70;;;;;;;-0.54;100.00;100927.75;4197497;28;23015;-67
2022/12/04 00:30:00;;;;;;;171.93;38.33;;;;;;;-0.53;100.00;100924.22;4197450;28;20275;-67
2022/12/04 00:32:27;;;;;;;155.13;37.47;;;;;;;-0.43;100.00;100919.44;4195978;28;20415;-67
2022/12/04 00:34:54;;;;;;;182.77;39.80;;;;;;;-0.54;100.00;100916.41;4189172;28;20243;-68
2022/12/04 00:37:20;;;;;;;168.00;38.67;;;;;;;-0.52;100.00;100922.44;4195297;28;21657;-68
2022/12/04 00:39:47;;;;;;;183.93;40.27;;;;;;;-0.50;100.00;100928.44;4199369;28;25074;-68
2022/12/04 00:42:13;;;;;;;172.77;38.60;;;;;;;-0.46;100.00;100930.88;4191631;28;20263;-68
2022/12/04 00:44:40;;;;;;;180.30;41.00;;;;;;;-0.49;100.00;100931.03;4195606;28;20535;-68
2022/12/04 00:47:07;;;;;;;170.30;39.03;;;;;;;-0.47;100.00;100916.13;4197147;28;20323;-67
2022/12/04 00:49:34;;;;;;;167.60;36.73;;;;;;;-0.47;100.00;100916.13;4218311;28;21278;-68
2022/12/04 00:52:00;;;;;;;159.93;37.00;;;;;;;-0.42;100.00;100921.16;4197328;28;21520;-65
2022/12/04 00:54:27;;;;;;;164.07;39.17;;;;;;;-0.38;100.00;100916.66;4200972;28;20728;-67
2022/12/04 00:56:54;;;;;;;153.40;39.17;;;;;;;-0.44;100.00;100905.53;4200314;28;20345;-67
2022/12/04 00:59:20;;;;;;;169.27;37.77;;;;;;;-0.53;100.00;100910.28;4196422;28;20308;-67
2022/12/04 01:01:47;;;;;;;175.27;39.90;;;;;;;-0.53;100.00;100908.53;4201909;28;20340;-67
2022/12/04 01:04:13;;;;;;;177.03;40.57;;;;;;;-0.53;100.00;100923.38;4198601;28;24877;-67
2022/12/04 01:06:40;;;;;;;181.33;40.63;;;;;;;-0.52;100.00;100918.06;4198742;28;20227;-66
2022/12/04 01:09:06;;;;;;;200.03;40.20;;;;;;;-0.47;100.00;100923.09;4195148;28;20248;-67
2022/12/04 01:11:34;;;;;;;180.10;40.70;;;;;;;-0.49;100.00;100930.19;4205362;28;20760;-67
2022/12/04 01:14:00;;;;;;;183.30;41.03;;;;;;;0.12;100.00;100934.59;4192875;28;20236;-66
2022/12/04 01:16:31;;;;;;;174.90;41.27;;;;;;;0.51;100.00;100934.59;4193865;28;20237;-68
2022/12/04 01:18:58;;;;;;;169.23;39.30;;;;;;;0.07;100.00;100918.22;4204403;28;20244;-67
2022/12/04 01:21:24;;;;;;;174.93;39.53;;;;;;;0.19;100.00;100925.56;4198133;28;20254;-66
2022/12/04 01:23:51;;;;;;;164.27;39.80;;;;;;;0.35;100.00;100928.34;4204733;28;20241;-66
2022/12/04 01:26:18;;;;;;;185.77;41.73;;;;;;;0.17;100.00;100924.78;4205939;28;20387;-66
2022/12/04 01:28:45;;;;;;;170.60;39.20;;;;;;;0.04;100.00;100929.69;4200820;28;20237;-67
2022/12/04 01:31:15;;;;;;;152.37;38.13;;;;;;;-0.14;100.00;100928.72;4204868;28;21162;-67
2022/12/04 01:33:42;;;;;;;175.27;39.07;;;;;;;-0.03;100.00;100934.31;4197507;28;20247;-66
2022/12/04 01:36:11;;;;;;;168.60;39.70;;;;;;;-0.08;100.00;100936.28;4204876;28;20625;-67
2022/12/04 01:38:38;;;;;;;162.60;38.03;;;;;;;0.30;100.00;100933.78;4208448;28;21685;-68
2022/12/04 01:41:06;;;;;;;162.73;38.97;;;;;;;-0.07;100.00;100932.78;4211226;28;21835;-70
2022/12/04 01:43:35;;;;;;;157.03;37.80;;;;;;;-0.01;100.00;100926.41;4203685;28;22309;-67
2022/12/04 01:46:02;;;;;;;174.90;40.17;;;;;;;-0.05;100.00;100915.25;4197959;28;21369;-66
2022/12/04 01:48:33;;;;;;;168.47;37.20;;;;;;;-0.23;100.00;100924.72;4200586;28;20229;-67
2022/12/04 01:51:14;;;;;;;166.23;41.17;;;;;;;-0.14;100.00;100915.63;4206715;28;20236;-66
2022/12/04 01:53:42;;;;;;;158.37;37.97;;;;;;;-0.13;100.00;100924.31;4205595;28;23693;-68
2022/12/04 01:56:09;;;;;;;148.13;36.47;;;;;;;-0.26;100.00;100921.34;4201791;28;20258;-69
2022/12/04 01:58:41;;;;;;;151.97;38.30;;;;;;;-0.14;100.00;100915.63;4203119;28;20278;-67
2022/12/04 02:01:07;;;;;;;151.77;37.67;;;;;;;-0.17;100.00;100915.75;4187611;28;20248;-67
2022/12/04 02:03:36;;;;;;;183.83;38.13;;;;;;;-0.13;100.00;100912.09;4201184;28;22876;-68
2022/12/04 02:06:02;;;;;;;173.17;38.97;;;;;;;-0.12;100.00;100911.16;4206814;28;21349;-67
2022/12/04 02:08:29;;;;;;;188.63;39.67;;;;;;;-0.23;100.00;100906.41;4213448;28;21297;-66
2022/12/04 02:11:14;;;;;;;169.37;39.97;;;;;;;-0.29;100.00;100908.41;4230240;28;22013;-69
2022/12/04 02:13:45;;;;;;;159.07;38.47;;;;;;;0.05;100.00;100899.13;4201639;28;20786;-68
2022/12/04 02:16:20;;;;;;;160.70;38.70;;;;;;;-0.17;100.00;100900.06;4197507;28;20240;-67
2022/12/04 02:19:18;;;;;;;168.13;37.73;;;;;;;-0.19;100.00;100901.88;4199340;28;20237;-69
2022/12/04 02:21:47;;;;;;;138.07;34.27;;;;;;;-0.22;100.00;100891.56;4245430;28;21862;-68
2022/12/04 02:24:16;;;;;;;130.10;34.97;;;;;;;-0.18;100.00;100892.28;4226194;28;20231;-67
2022/12/04 02:26:46;;;;;;;132.97;33.93;;;;;;;-0.23;100.00;100895.94;4216348;28;20269;-66
2022/12/04 02:29:23;;;;;;;137.87;34.10;;;;;;;-0.31;100.00;100891.94;4209705;28;20223;-66
2022/12/04 02:31:57;;;;;;;126.43;34.43;;;;;;;-0.27;100.00;100898.75;4227671;28;20290;-66
2022/12/04 02:34:49;;;;;;;125.37;33.50;;;;;;;-0.28;100.00;100886.56;4234170;28;20441;-68
2022/12/04 02:37:18;;;;;;;137.80;33.83;;;;;;;-0.36;100.00;100893.91;4211339;28;20235;-67
2022/12/04 02:39:52;;;;;;;134.47;35.10;;;;;;;-0.26;100.00;100900.44;4195712;28;21201;-66
2022/12/04 02:42:30;;;;;;;138.30;35.23;;;;;;;-0.33;100.00;100896.38;4196000;28;21734;-68
2022/12/04 02:45:00;;;;;;;139.07;32.27;;;;;;;-0.29;100.00;100900.56;4204132;28;20292;-67
2022/12/04 02:47:27;;;;;;;129.47;33.53;;;;;;;-0.23;100.00;100895.09;4213521;28;27913;-66
2022/12/04 02:49:53;;;;;;;123.97;33.30;;;;;;;-0.26;100.00;100892.59;4200332;28;20722;-66
2022/12/04 02:52:23;;;;;;;130.77;34.93;;;;;;;-0.29;100.00;100893.56;4199388;28;20248;-67
2022/12/04 02:54:53;;;;;;;138.37;33.93;;;;;;;-0.31;100.00;100902.41;4186942;28;20385;-68
2022/12/04 02:57:26;;;;;;;135.83;34.53;;;;;;;-0.31;100.00;100910.25;4208336;28;20320;-66
2022/12/04 02:59:55;;;;;;;131.50;33.03;;;;;;;-0.18;100.00;100897.53;4192648;28;23514;-69
2022/12/04 03:02:27;;;;;;;124.73;32.57;;;;;;;-0.31;100.00;100897.16;4186528;28;20472;-66
2022/12/04 03:04:55;;;;;;;117.43;32.40;;;;;;;-0.33;100.00;100894.63;4194550;28;20237;-68
2022/12/04 03:07:27;;;;;;;131.50;33.70;;;;;;;-0.27;100.00;100888.28;4202214;28;20233;-67
2022/12/04 03:09:58;;;;;;;125.97;32.73;;;;;;;-0.19;100.00;100890.56;4186389;28;20253;-68
2022/12/04 03:12:43;;;;;;;129.60;35.03;;;;;;;-0.22;100.00;100870.63;4193221;28;20278;-66
2022/12/04 03:15:34;;;;;;;140.03;33.63;;;;;;;-0.22;100.00;100881.09;4215986;28;26707;-66
2022/12/04 03:18:11;;;;;;;132.33;33.43;;;;;;;-0.29;100.00;100880.50;4197674;28;20240;-67
2022/12/04 03:20:38;;;;;;;131.40;33.53;;;;;;;-0.30;100.00;100878.81;4191709;28;20988;-67
2022/12/04 03:23:18;;;;;;;134.97;33.33;;;;;;;-0.27;100.00;100883.91;4189874;28;20248;-66
2022/12/04 03:25:52;;;;;;;130.67;34.33;;;;;;;-0.34;100.00;100882.47;4189710;28;20234;-67
2022/12/04 03:28:26;;;;;;;149.43;34.83;;;;;;;-0.30;100.00;100883.19;4188993;28;20303;-67
2022/12/04 03:30:57;;;;;;;134.30;33.57;;;;;;;-0.27;100.00;100883.06;4193454;28;20797;-67
2022/12/04 03:33:32;;;;;;;132.10;35.57;;;;;;;-0.28;100.00;100889.19;4185173;28;20241;-67
2022/12/04 03:36:26;;;;;;;133.97;34.00;;;;;;;-0.28;100.00;100897.03;4200352;28;20370;-68
2022/12/04 03:39:18;;;;;;;123.37;33.10;;;;;;;-0.12;100.00;100885.00;4202381;28;21043;-65
2022/12/04 03:41:54;;;;;;;135.93;33.53;;;;;;;-0.23;100.00;100884.63;4210266;28;20252;-67
2022/12/04 03:44:36;;;;;;;133.13;33.30;;;;;;;0.16;100.00;100886.44;4193178;28;22392;-68
2022/12/04 03:47:06;;;;;;;130.20;33.17;;;;;;;-0.25;100.00;100878.63;4202888;28;20395;-65
2022/12/04 03:49:41;;;;;;;149.73;34.80;;;;;;;-0.22;100.00;100868.03;4200482;28;20252;-68
2022/12/04 03:52:23;;;;;;;148.53;34.60;;;;;;;-0.31;100.00;100871.03;4201182;28;20375;-67
2022/12/04 03:54:57;;;;;;;131.10;34.40;;;;;;;-0.01;100.00;100876.72;4199518;28;26764;-66
2022/12/04 03:57:28;;;;;;;133.47;33.43;;;;;;;-0.14;100.00;100870.28;4189578;28;23656;-65
2022/12/04 04:00:00;;;;;;;132.03;32.47;;;;;;;-0.15;100.00;100873.84;4201898;28;20233;-66
2022/12/04 04:02:32;;;;;;;131.10;33.83;;;;;;;-0.24;100.00;100877.69;4187183;28;20289;-64
2022/12/04 04:05:00;;;;;;;111.90;29.43;;;;;;;-0.15;100.00;100876.47;4212673;28;21878;-65
2022/12/04 04:07:38;;;;;;;123.43;31.93;;;;;;;-0.06;100.00;100876.91;4212454;28;20271;-67
2022/12/04 04:10:11;;;;;;;113.97;30.17;;;;;;;-0.19;100.00;100865.25;4179476;28;20561;-65
2022/12/04 04:12:44;;;;;;;118.13;31.17;;;;;;;-0.25;100.00;100874.22;4200252;28;20423;-66
2022/12/04 04:26:33;;;;;;;98.63;27.97;;;;;;;-0.13;100.00;100859.78;4197256;28;20238;-68
2022/12/04 04:29:00;;;;;;;98.93;27.83;;;;;;;-0.24;100.00;100851.53;4211224;28;22323;-68
2022/12/04 04:31:57;;;;;;;87.60;26.17;;;;;;;-0.22;100.00;100854.94;4196195;28;20232;-66
2022/12/04 04:34:28;;;;;;;79.90;26.23;;;;;;;0.06;100.00;100861.59;4199396;28;20236;-66
2022/12/04 04:37:02;;;;;;;88.17;26.43;;;;;;;-0.11;100.00;100867.56;4200344;28;20243;-66
2022/12/04 04:39:33;;;;;;;81.47;25.20;;;;;;;0.16;100.00;100866.38;4192015;28;20246;-67
2022/12/04 04:42:06;;;;;;;94.07;26.97;;;;;;;-0.05;100.00;100862.94;4206022;28;20450;-69
2022/12/04 04:45:00;;;;;;;89.90;25.37;;;;;;;-0.27;100.00;100875.22;4190172;28;20240;-66
2022/12/04 04:47:53;;;;;;;82.50;25.67;;;;;;;0.01;100.00;100877.50;4203197;28;21795;-66
2022/12/04 04:50:20;;;;;;;83.97;24.77;;;;;;;-0.20;100.00;100884.50;4194706;28;20234;-65
2022/12/04 04:52:50;;;;;;;80.63;25.53;;;;;;;-0.16;100.00;100886.06;4202576;28;20460;-66
2022/12/04 04:55:17;;;;;;;88.97;25.63;;;;;;;-0.29;100.00;100880.50;4189923;28;20325;-65
2022/12/04 04:57:43;;;;;;;89.30;25.87;;;;;;;-0.39;100.00;100878.34;4195597;28;23434;-65
2022/12/04 05:00:13;;;;;;;85.70;25.10;;;;;;;-0.25;100.00;100883.84;4191508;28;20259;-66
2022/12/04 05:02:40;;;;;;;86.23;25.43;;;;;;;-0.36;100.00;100883.44;4191676;28;20241;-66
2022/12/04 05:05:07;;;;;;;93.27;26.70;;;;;;;-0.35;100.00;100886.00;4194280;28;20307;-66
2022/12/04 05:07:34;;;;;;;83.83;26.13;;;;;;;-0.15;100.00;100890.38;4203834;28;20233;-64
2022/12/04 05:10:00;;;;;;;86.27;25.67;;;;;;;-0.08;100.00;100876.13;4195612;28;23421;-67
2022/12/04 05:12:27;;;;;;;91.10;27.10;;;;;;;-0.30;100.00;100863.13;4195522;28;20228;-66
2022/12/04 05:14:53;;;;;;;82.93;25.77;;;;;;;-0.31;100.00;100881.47;4194849;28;21914;-70
2022/12/04 05:17:20;;;;;;;89.93;27.53;;;;;;;-0.36;100.00;100880.84;4193961;28;20340;-68
2022/12/04 05:19:52;;;;;;;95.17;27.40;;;;;;;-0.37;100.00;100881.75;4196398;28;20241;-69
2022/12/04 05:22:33;;;;;;;105.73;28.23;;;;;;;-0.36;100.00;100888.69;4193856;28;20665;-66
2022/12/04 05:25:01;;;;;;;93.50;28.73;;;;;;;-0.40;100.00;100884.47;4196169;28;20237;-67
2022/12/04 05:27:28;;;;;;;99.30;29.67;;;;;;;-0.32;100.00;100898.09;4191625;28;20502;-69
2022/12/04 05:29:56;;;;;;;109.33;28.97;;;;;;;-0.31;100.00;100894.56;4190242;28;20285;-66
2022/12/04 05:32:25;;;;;;;98.80;29.00;;;;;;;-0.27;100.00;100909.22;4214467;28;20223;-69
2022/12/04 05:34:54;;;;;;;103.33;29.30;;;;;;;-0.16;100.00;100903.53;4195316;28;20235;-67
2022/12/04 05:37:21;;;;;;;109.03;28.83;;;;;;;-0.14;100.00;100899.06;4190743;28;20475;-66
2022/12/04 05:39:47;;;;;;;103.37;29.07;;;;;;;0.05;100.00;100900.00;4189746;28;20278;-66
2022/12/04 05:42:14;;;;;;;106.27;30.20;;;;;;;0.11;100.00;100899.72;4192472;28;20233;-67
2022/12/04 05:44:40;;;;;;;95.27;29.70;;;;;;;-0.03;100.00;100900.31;4198627;28;20236;-68
2022/12/04 05:47:07;;;;;;;103.10;29.73;;;;;;;-0.02;100.00;100901.19;4190522;28;20519;-66
2022/12/04 05:49:34;;;;;;;114.53;29.87;;;;;;;-0.18;100.00;100900.13;4190890;28;26125;-65
2022/12/04 05:52:03;;;;;;;108.70;29.40;;;;;;;-0.30;100.00;100898.88;4194247;28;20579;-66
2022/12/04 05:54:29;;;;;;;103.63;28.93;;;;;;;-0.40;100.00;100898.41;4193407;28;20512;-66
2022/12/04 05:56:56;;;;;;;113.77;30.87;;;;;;;-0.47;100.00;100891.72;4188061;28;20241;-67
2022/12/04 05:59:22;;;;;;;101.53;29.47;;;;;;;-0.45;100.00;100895.97;4193135;28;20240;-67
2022/12/04 06:01:49;;;;;;;100.70;29.00;;;;;;;-0.45;100.00;100895.97;4193648;28;20684;-65
2022/12/04 06:04:15;;;;;;;102.37;28.27;;;;;;;-0.32;100.00;100898.09;4180535;28;23051;-65
2022/12/04 06:06:42;;;;;;;105.33;30.47;;;;;;;-0.33;100.00;100899.00;4209428;28;20244;-65
2022/12/04 06:09:10;;;;;;;104.37;28.00;;;;;;;-0.26;100.00;100900.44;4191771;28;20240;-67
2022/12/04 06:11:38;;;;;;;95.70;27.70;;;;;;;-0.27;100.00;100898.75;4192093;28;22168;-67
2022/12/04 06:14:06;;;;;;;107.23;28.90;;;;;;;-0.35;100.00;100895.59;4192673;28;20618;-67
2022/12/04 06:16:39;;;;;;;99.70;28.20;;;;;;;-0.32;100.00;100890.25;4198279;28;23597;-68
2022/12/04 06:19:08;;;;;;;96.63;28.10;;;;;;;-0.32;100.00;100908.56;4186350;28;20237;-66
2022/12/04 06:21:37;;;;;;;93.87;25.67;;;;;;;-0.28;100.00;100923.19;4194264;28;20240;-68
2022/12/04 06:24:04;;;;;;;93.87;27.70;;;;;;;-0.40;100.00;100918.47;4186038;28;20253;-65
2022/12/04 06:26:30;;;;;;;86.97;25.50;;;;;;;-0.34;100.00;100920.84;4189806;28;20415;-69
2022/12/04 06:28:57;;;;;;;97.07;27.83;;;;;;;-0.03;100.00;100921.25;4189932;28;22255;-67
2022/12/04 06:31:26;;;;;;;85.77;25.40;;;;;;;0.21;100.00;100923.72;4192299;28;20229;-68
2022/12/04 06:33:53;;;;;;;90.70;25.53;;;;;;;0.19;100.00;100925.56;4197911;28;20295;-65
2022/12/04 06:36:20;;;;;;;98.70;27.40;;;;;;;-0.10;100.00;100918.97;4205737;28;20260;-67
2022/12/04 06:38:48;;;;;;;79.37;26.00;;;;;;;-0.08;100.00;100924.97;4205879;28;20392;-66
2022/12/04 06:41:17;;;;;;;89.10;26.17;;;;;;;-0.11;100.00;100930.34;4194431;28;20301;-64
2022/12/04 06:43:44;;;;;;;82.33;24.83;;;;;;;-0.10;100.00;100932.03;4213816;28;20309;-68
2022/12/04 06:46:12;;;;;;;73.80;25.97;;;;;;;-0.01;100.00;100937.72;4192669;28;20233;-65
2022/12/04 06:48:40;;;;;;;80.00;26.13;;;;;;;-0.06;100.00;100934.47;4190863;28;25545;-68
2022/12/04 06:51:12;;;;;;;83.27;26.73;;;;;;;-0.04;100.00;100932.63;4208972;28;21378;-70
2022/12/04 06:53:40;;;;;;;85.90;25.50;;;;;;;0.04;100.00;100932.28;4190968;28;20621;-69
2022/12/04 06:56:09;;;;;;;83.93;24.77;;;;;;;-0.01;100.00;100942.13;4183097;28;23303;-71
2022/12/04 06:58:36;;;;;;;77.53;26.00;;;;;;;0.06;100.00;100935.69;4201714;28;20369;-71
2022/12/04 07:01:11;;;;;;;79.33;24.60;;;;;;;0.03;100.00;100942.84;4190617;28;21084;-72
2022/12/04 07:03:38;;;;;;;83.50;25.80;;;;;;;-0.14;100.00;100936.56;4196518;28;20313;-72
2022/12/04 07:06:21;;;;;;;81.83;26.67;;;;;;;-0.07;100.00;100926.66;4202394;28;20454;-70
2022/12/04 07:08:54;;;;;;;94.90;27.33;;;;;;;-0.07;100.00;100937.13;4209268;28;20690;-71
2022/12/04 07:11:21;;;;;;;89.73;27.07;;;;;;;-0.10;100.00;100937.28;4200339;28;20233;-70
2022/12/04 07:13:48;;;;;;;103.33;28.40;;;;;;;-0.05;100.00;100936.19;4201882;28;20235;-70
2022/12/04 07:16:17;;;;;;;92.73;27.90;;;;;;;0.04;100.00;100931.44;4204299;28;21201;-70
2022/12/04 07:18:44;;;;;;;86.60;27.53;;;;;;;-0.04;100.00;100929.16;4203106;28;20303;-72
2022/12/04 07:21:15;;;;;;;89.00;27.67;;;;;;;0.16;100.00;100936.16;4204176;28;20343;-72
2022/12/04 07:23:41;;;;;;;98.80;29.17;;;;;;;0.05;100.00;100928.78;4194550;28;22079;-71
2022/12/04 07:26:10;;;;;;;97.03;29.00;;;;;;;0.11;100.00;100936.34;4227313;28;20698;-70
2022/12/04 07:28:38;;;;;;;94.80;27.30;;;;;;;0.08;100.00;100935.66;4192347;28;20745;-71
2022/12/04 07:31:05;;;;;;;89.43;27.70;;;;;;;0.05;100.00;100925.28;4199591;28;20239;-73
2022/12/04 07:33:34;;;;;;;80.13;25.43;;;;;;;-0.07;100.00;100930.16;4195832;28;21149;-73
2022/12/04 07:36:03;;;;;;;87.00;28.00;;;;;;;-0.08;100.00;100930.22;4198371;28;20395;-72
2022/12/04 07:38:30;;;;;;;81.20;26.80;;;;;;;-0.09;100.00;100947.69;4203453;28;21855;-72
2022/12/04 07:40:58;;;;;;;88.43;27.07;;;;;;;-0.06;100.00;100951.94;4212223;28;22933;-71
2022/12/04 07:43:26;;;;;;;77.30;29.20;;;;;;;-0.01;100.00;100947.34;4203260;28;20241;-72
2022/12/04 07:45:52;;;;;;;87.83;28.87;;;;;;;-0.03;100.00;100950.00;4220766;28;20228;-71
2022/12/04 07:48:19;;;;;;;82.03;26.63;;;;;;;0.10;100.00;100965.22;4196611;28;21627;-73
2022/12/04 07:50:46;;;;;;;75.30;25.87;;;;;;;0.02;100.00;100956.81;4192700;28;21857;-70
2022/12/04 07:53:12;;;;;;;76.03;26.50;;;;;;;0.05;100.00;100952.34;4206482;28;20356;-73
2022/12/04 07:55:39;;;;;;;77.30;25.57;;;;;;;0.06;100.00;100954.03;4195540;28;20428;-72
2022/12/04 07:58:05;;;;;;;71.90;24.87;;;;;;;-0.01;100.00;100952.56;4196795;28;23078;-72
2022/12/04 08:00:32;;;;;;;66.67;23.63;;;;;;;-0.12;100.00;100960.88;4189013;28;20244;-70
2022/12/04 08:02:59;;;;;;;72.47;24.70;;;;;;;-0.01;100.00;100963.88;4198238;28;20240;-71
2022/12/04 08:05:26;;;;;;;65.27;23.40;;;;;;;0.10;100.00;100970.44;4193320;28;20236;-74
2022/12/04 08:07:52;;;;;;;69.43;24.13;;;;;;;-0.09;100.00;100960.75;4199102;28;20334;-75
2022/12/04 08:10:19;;;;;;;64.80;23.07;;;;;;;-0.20;100.00;100962.97;4197452;28;20232;-75
2022/12/04 08:12:45;;;;;;;67.57;23.60;;;;;;;-0.20;100.00;100960.34;4199653;28;20243;-73
2022/12/04 08:15:12;;;;;;;66.03;24.33;;;;;;;-0.17;100.00;100957.59;4211023;28;20235;-72
2022/12/04 08:17:39;;;;;;;67.23;23.80;;;;;;;-0.05;100.00;100954.50;4195993;28;20237;-73
2022/12/04 08:20:06;;;;;;;62.60;22.97;;;;;;;-0.06;100.00;100952.78;4199906;28;22627;-75
2022/12/04 08:22:32;;;;;;;65.43;23.43;;;;;;;-0.10;100.00;100951.19;4204770;28;22360;-72
2022/12/04 08:24:59;;;;;;;70.70;25.40;;;;;;;-0.14;100.00;100946.16;4193467;28;20410;-70
2022/12/04 08:27:26;;;;;;;62.57;24.07;;;;;;;0.06;100.00;100958.41;4199129;28;21203;-75
2022/12/04 08:29:52;;;;;;;67.07;24.23;;;;;;;-0.02;100.00;100956.13;4215394;28;20422;-73
2022/12/04 08:32:20;;;;;;;66.47;24.43;;;;;;;-0.02;100.00;100956.13;4190857;28;20409;-72
2022/12/04 08:34:48;;;;;;;63.57;25.20;;;;;;;0.06;100.00;100958.41;4200478;28;20237;-76
2022/12/04 08:37:21;;;;;;;63.87;22.57;;;;;;;0.10;100.00;100954.75;4196119;28;20274;-74
2022/12/04 08:39:47;;;;;;;72.73;25.53;;;;;;;0.16;100.00;100951.84;4196648;28;20689;-70
2022/12/04 08:42:14;;;;;;;65.53;22.87;;;;;;;0.06;100.00;100951.41;4195969;28;20835;-74
2022/12/04 08:44:40;;;;;;;68.80;23.83;;;;;;;-0.06;100.00;100946.69;4192041;28;23073;-74
2022/12/04 08:47:07;;;;;;;65.77;24.30;;;;;;;-0.03;100.00;100947.41;4212853;28;20234;-76
2022/12/04 08:49:34;;;;;;;63.07;23.50;;;;;;;0.06;100.00;100945.31;4202760;28;20241;-73
2022/12/04 08:52:00;;;;;;;66.20;25.07;;;;;;;0.02;100.00;100944.59;4193768;28;20754;-75
2022/12/04 08:54:27;;;;;;;59.60;22.90;;;;;;;0.02;100.00;100946.38;4198764;28;20518;-74
2022/12/04 08:57:01;;;;;;;66.83;24.47;;;;;;;0.07;100.00;100944.41;4196653;28;20239;-74
2022/12/04 08:59:27;;;;;;;61.23;24.40;;;;;;;0.20;100.00;100950.81;4201664;28;21063;-74
2022/12/04 09:01:54;;;;;;;62.60;24.30;;;;;;;0.10;100.00;100945.13;4202311;28;20558;-75
2022/12/04 09:04:21;;;;;;;57.07;22.57;;;;;;;0.10;100.00;100954.75;4212818;28;20257;-75
2022/12/04 09:06:47;;;;;;;57.50;24.07;;;;;;;0.07;100.00;100949.63;4213626;28;25663;-73
2022/12/04 09:09:14;;;;;;;64.00;24.17;;;;;;;0.13;100.00;100949.38;4199830;28;20237;-69
2022/12/04 09:11:44;;;;;;;66.63;25.17;;;;;;;0.12;100.00;100943.31;4215116;28;20271;-67
2022/12/04 09:14:10;;;;;;;68.57;24.47;;;;;;;0.09;100.00;100929.47;4202710;28;20233;-71
2022/12/04 09:16:37;;;;;;;73.30;25.40;;;;;;;0.04;100.00;100940.16;4197341;28;20336;-76
2022/12/04 09:19:04;;;;;;;59.23;23.23;;;;;;;-0.04;100.00;100934.41;4199072;28;20587;-77
2022/12/04 09:21:30;;;;;;;67.87;23.50;;;;;;;0.06;100.00;100933.09;4190811;28;20323;-74
2022/12/04 09:23:58;;;;;;;66.60;23.07;;;;;;;0.12;100.00;100937.22;4198582;28;20229;-72
2022/12/04 09:26:27;;;;;;;67.03;24.87;;;;;;;0.07;100.00;100933.94;4194467;28;20616;-74
2022/12/04 09:28:54;;;;;;;65.83;25.63;;;;;;;0.01;100.00;100931.59;4196268;28;20534;-75
2022/12/04 09:31:22;;;;;;;63.73;24.07;;;;;;;0.09;100.00;100937.34;4180053;28;21134;-75
2022/12/04 09:33:48;;;;;;;64.93;23.63;;;;;;;0.00;100.00;100933.38;4192286;28;25732;-73
2022/12/04 09:36:15;;;;;;;61.40;23.10;;;;;;;0.11;100.00;100945.97;4198291;28;20280;-76
2022/12/04 09:38:44;;;;;;;59.30;22.30;;;;;;;0.23;100.00;100929.72;4200968;28;21092;-76
2022/12/04 09:41:37;;;;;;;54.43;22.47;;;;;;;0.05;100.00;100933.13;4191477;28;20317;-76
2022/12/04 09:44:14;;;;;;;64.07;22.47;;;;;;;0.27;100.00;100940.94;4196280;28;20403;-77
2022/12/04 09:46:48;;;;;;;62.73;23.17;;;;;;;0.21;100.00;100936.81;4196576;28;20227;-74
2022/12/04 09:49:22;;;;;;;57.70;21.87;;;;;;;0.24;100.00;100935.84;4194944;28;20284;-72
2022/12/04 09:51:50;;;;;;;60.47;23.27;;;;;;;0.27;100.00;100931.31;4187165;28;21047;-67
2022/12/04 09:54:22;;;;;;;56.83;22.97;;;;;;;0.28;100.00;100938.25;4199274;28;21946;-70
2022/12/04 09:56:54;;;;;;;56.37;23.07;;;;;;;0.36;100.00;100928.28;4200384;28;21259;-69
2022/12/04 09:59:25;;;;;;;59.33;22.77;;;;;;;0.35;100.00;100924.00;4193743;28;20263;-63
2022/12/04 10:02:03;;;;;;;57.80;22.47;;;;;;;0.40;100.00;100916.78;4204409;28;20401;-68
2022/12/04 10:04:30;;;;;;;55.37;21.70;;;;;;;0.31;100.00;100925.03;4200735;28;20232;-71
2022/12/04 10:07:04;;;;;;;59.27;22.37;;;;;;;0.29;100.00;100908.53;4192591;28;20334;-72
2022/12/04 10:09:39;;;;;;;54.37;22.27;;;;;;;0.33;100.00;100915.34;4196032;28;21660;-72
2022/12/04 10:12:28;;;;;;;60.77;24.00;;;;;;;0.38;100.00;100908.13;4186714;28;20237;-72
2022/12/04 10:15:00;;;;;;;59.83;22.53;;;;;;;0.34;100.00;100908.34;4207749;28;20245;-70
2022/12/04 10:18:04;;;;;;;54.83;22.57;;;;;;;0.38;100.00;100905.50;4202603;28;20235;-71
2022/12/04 10:20:43;;;;;;;56.73;22.37;;;;;;;0.62;100.00;100905.31;4187346;28;20252;-72
2022/12/04 10:23:43;;;;;;;58.93;22.47;;;;;;;0.50;100.00;100901.50;4192864;28;20231;-72
2022/12/04 10:26:14;;;;;;;53.83;22.30;;;;;;;0.57;100.00;100899.47;4204745;28;20234;-74
2022/12/04 10:28:43;;;;;;;54.17;23.00;;;;;;;0.49;100.00;100909.41;4196944;28;20732;-73
2022/12/04 10:31:12;;;;;;;61.57;22.33;;;;;;;0.46;100.00;100905.16;4196962;28;20237;-71
2022/12/04 10:33:55;;;;;;;55.57;23.30;;;;;;;0.43;100.00;100897.47;4197036;28;21178;-72
2022/12/04 10:36:27;;;;;;;54.33;22.87;;;;;;;0.45;100.00;100885.16;4188499;28;20252;-72
2022/12/04 10:39:15;;;;;;;54.03;23.57;;;;;;;0.49;100.00;100888.47;4190846;28;24420;-72
2022/12/04 10:41:45;;;;;;;60.97;23.13;;;;;;;0.53;100.00;100884.78;4197897;28;21006;-71
2022/12/04 10:44:16;;;;;;;61.60;24.83;;;;;;;0.70;100.00;100871.75;4193705;28;21015;-72
2022/12/04 10:46:43;;;;;;;55.03;22.83;;;;;;;0.64;100.00;100872.06;4199305;28;20230;-71
2022/12/04 10:49:18;;;;;;;56.43;22.60;;;;;;;0.61;100.00;100882.69;4203724;28;20319;-71
2022/12/04 10:51:46;;;;;;;64.17;25.77;;;;;;;0.61;100.00;100877.47;4199132;28;20311;-69
2022/12/04 10:54:30;;;;;;;56.97;24.23;;;;;;;0.62;100.00;100879.13;4194983;28;20373;-70
2022/12/04 10:56:58;;;;;;;56.20;24.57;;;;;;;0.57;100.00;100870.66;4195123;28;20227;-71
2022/12/04 10:59:26;;;;;;;57.83;24.83;;;;;;;0.58;100.00;100862.69;4196908;28;27683;-71
2022/12/04 11:02:14;;;;;;;54.00;23.67;;;;;;;0.61;100.00;100859.97;4197183;28;20444;-72
2022/12/04 11:04:41;;;;;;;54.13;23.87;;;;;;;0.66;100.00;100859.75;4196788;28;21135;-69
2022/12/04 11:07:24;;;;;;;56.33;24.17;;;;;;;0.64;100.00;100856.34;4193217;28;20232;-73
2022/12/04 11:10:18;;;;;;;57.57;24.00;;;;;;;0.52;100.00;100851.69;4194812;28;20289;-72
2022/12/04 11:13:04;;;;;;;57.93;24.27;;;;;;;0.61;100.00;100851.25;4201126;28;21057;-71
2022/12/04 11:15:34;;;;;;;52.73;22.77;;;;;;;0.59;100.00;100855.72;4193625;28;20323;-70
2022/12/04 11:18:08;;;;;;;53.70;23.07;;;;;;;0.75;100.00;100861.94;4188554;28;22951;-67
2022/12/04 11:20:35;;;;;;;56.57;23.20;;;;;;;0.69;100.00;100864.00;4200764;28;20234;-69
2022/12/04 11:23:01;;;;;;;54.53;23.37;;;;;;;0.53;100.00;100861.22;4184322;28;23382;-64
2022/12/04 11:25:44;;;;;;;50.40;21.30;;;;;;;0.40;100.00;100863.56;4204563;28;20381;-66
2022/12/04 11:28:16;;;;;;;57.17;23.23;;;;;;;0.42;100.00;100853.84;4191011;28;20276;-67